createdAt,value
2019-05-13T00:00:14.649Z,1.47
2019-05-13T00:02:43.854Z,1.40
2019-05-13T00:05:11.586Z,2.07
2019-05-13T00:07:39.919Z,1.70
2019-05-13T00:10:08.304Z,1.80
2019-05-13T00:12:36.807Z,1.93
2019-05-13T00:15:05.559Z,3.00
2019-05-13T00:17:33.939Z,2.00
2019-05-13T00:20:04.025Z,1.90
2019-05-13T00:22:30.828Z,1.53
2019-05-13T00:24:59.136Z,1.60
2019-05-13T00:27:27.751Z,1.40
2019-05-13T00:29:56.117Z,1.63
2019-05-13T00:32:24.521Z,1.90
2019-05-13T00:34:53.391Z,1.63
2019-05-13T00:37:21.373Z,1.60
2019-05-13T00:39:49.798Z,1.73
2019-05-13T00:42:18.285Z,1.90
2019-05-13T00:44:46.703Z,1.80
2019-05-13T00:47:15.394Z,2.00
2019-05-13T00:49:43.854Z,2.10
2019-05-13T00:52:14.143Z,2.00
2019-05-13T00:54:40.541Z,1.70
2019-05-13T00:57:08.972Z,1.80
2019-05-13T00:59:37.309Z,1.70
2019-05-13T01:02:05.681Z,1.60
2019-05-13T01:04:34.199Z,2.23
2019-05-13T01:07:04.387Z,2.47
2019-05-13T01:09:30.920Z,2.00
2019-05-13T01:11:59.347Z,1.93
2019-05-13T01:14:27.700Z,1.67
2019-05-13T01:16:56.101Z,1.80
2019-05-13T01:19:24.619Z,2.10
2019-05-13T01:21:54.026Z,2.17
2019-05-13T01:24:21.654Z,2.60
2019-05-13T01:26:50.251Z,2.33
2019-05-13T01:29:18.610Z,2.17
2019-05-13T01:31:46.939Z,2.10
2019-05-13T01:34:15.707Z,1.90
2019-05-13T01:36:44.724Z,2.00
2019-05-13T01:39:13.860Z,2.00
2019-05-13T01:41:40.925Z,2.07
2019-05-13T01:44:09.307Z,2.03
2019-05-13T01:46:37.647Z,2.40
2019-05-13T01:49:06.107Z,2.07
2019-05-13T01:51:34.447Z,2.20
2019-05-13T01:54:04.125Z,1.80
2019-05-13T01:56:33.808Z,1.90
2019-05-13T01:58:59.663Z,2.13
2019-05-13T02:01:28.042Z,2.83
2019-05-13T02:03:56.461Z,2.07
2019-05-13T02:06:24.759Z,1.90
2019-05-13T02:08:54.478Z,2.30
2019-05-13T02:11:23.883Z,2.70
2019-05-13T02:13:50.359Z,2.80
2019-05-13T02:16:18.707Z,2.90
2019-05-13T02:18:47.401Z,2.50
2019-05-13T02:21:15.789Z,2.00
2019-05-13T02:23:44.423Z,2.40
2019-05-13T02:26:13.603Z,2.37
2019-05-13T02:28:43.479Z,1.93
2019-05-13T02:31:13.802Z,1.80
2019-05-13T02:33:38.433Z,2.20
2019-05-13T02:36:06.816Z,1.83
2019-05-13T02:38:35.815Z,2.00
2019-05-13T02:41:03.744Z,2.57
2019-05-13T02:43:33.354Z,1.90
2019-05-13T02:46:03.771Z,2.40
2019-05-13T02:48:32.620Z,1.87
2019-05-13T02:50:58.354Z,1.60
2019-05-13T02:53:26.662Z,1.27
2019-05-13T02:55:55.235Z,1.50
2019-05-13T02:58:24.703Z,1.60
2019-05-13T03:00:53.209Z,1.50
2019-05-13T03:03:23.119Z,1.90
2019-05-13T03:05:52.345Z,1.73
2019-05-13T03:08:34.210Z,2.13
2019-05-13T03:10:45.851Z,1.70
2019-05-13T03:13:14.195Z,2.07
2019-05-13T03:15:51.513Z,2.60
2019-05-13T03:18:18.021Z,2.07
2019-05-13T03:20:46.418Z,2.07
2019-05-13T03:23:15.076Z,2.00
2019-05-13T03:25:43.429Z,2.33
2019-05-13T03:28:13.431Z,2.20
2019-05-13T03:30:45.134Z,2.53
2019-05-13T03:33:11.415Z,2.50
2019-05-13T03:35:37.588Z,2.90
2019-05-13T03:38:05.821Z,3.90
2019-05-13T03:40:34.179Z,3.60
2019-05-13T03:43:03.069Z,3.80
2019-05-13T03:45:32.747Z,3.73
2019-05-13T03:48:03.661Z,1.90
2019-05-13T03:50:33.426Z,5.50
2019-05-13T03:52:57.819Z,3.43
2019-05-13T03:55:26.248Z,2.90
2019-05-13T03:57:54.645Z,2.63
2019-05-13T04:00:23.840Z,2.03
2019-05-13T04:02:52.251Z,1.60
2019-05-13T04:05:23.073Z,1.53
2019-05-13T04:07:52.034Z,1.67
2019-05-13T04:10:17.406Z,1.50
2019-05-13T04:12:45.777Z,1.80
2019-05-13T04:15:14.526Z,2.03
2019-05-13T04:17:43.012Z,2.07
2019-05-13T04:20:12.601Z,1.63
2019-05-13T04:22:42.553Z,1.50
2019-05-13T04:25:08.197Z,1.50
2019-05-13T04:27:36.525Z,1.47
2019-05-13T04:30:06.521Z,1.90
2019-05-13T04:32:34.897Z,1.63
2019-05-13T04:35:04.109Z,1.43
2019-05-13T04:37:33.089Z,1.20
2019-05-13T04:40:03.407Z,1.47
2019-05-13T04:42:28.865Z,1.73
2019-05-13T04:44:57.314Z,1.93
2019-05-13T04:47:25.706Z,1.60
2019-05-13T04:49:54.154Z,1.33
2019-05-13T04:52:22.720Z,1.70
2019-05-13T04:54:52.750Z,1.63
2019-05-13T04:57:22.378Z,1.40
2019-05-13T04:59:47.947Z,1.80
2019-05-13T05:02:49.755Z,1.50
2019-05-13T05:05:26.219Z,1.70
2019-05-13T05:08:03.124Z,1.90
2019-05-13T05:10:42.830Z,1.37
2019-05-13T05:13:22.088Z,1.70
2019-05-13T05:16:02.661Z,1.27
2019-05-13T05:18:42.110Z,1.70
2019-05-13T05:21:12.171Z,1.17
2019-05-13T05:23:51.853Z,1.43
2019-05-13T05:26:31.173Z,1.13
2019-05-13T05:29:11.360Z,1.20
2019-05-13T05:32:21.258Z,1.37
2019-05-13T05:34:58.228Z,1.70
2019-05-13T05:37:41.636Z,1.53
2019-05-13T05:40:08.190Z,1.83
2019-05-13T05:42:36.724Z,1.00
2019-05-13T05:45:05.853Z,1.50
2019-05-13T05:47:34.317Z,1.23
2019-05-13T05:50:03.215Z,1.60
2019-05-13T05:52:31.659Z,1.03
2019-05-13T05:55:02.422Z,1.30
2019-05-13T05:57:31.240Z,1.50
2019-05-13T05:59:57.928Z,1.50
2019-05-13T06:02:26.317Z,1.50
2019-05-13T06:04:54.742Z,1.37
2019-05-13T06:07:23.287Z,1.17
2019-05-13T06:09:51.705Z,1.50
2019-05-13T06:12:21.380Z,1.60
2019-05-13T06:14:52.226Z,1.47
2019-05-13T06:17:17.242Z,1.40
2019-05-13T06:19:45.616Z,1.53
2019-05-13T06:22:14.560Z,1.00
2019-05-13T06:24:42.952Z,1.30
2019-05-13T06:27:11.828Z,1.23
2019-05-13T06:29:42.051Z,1.40
2019-05-13T06:32:19.067Z,1.20
2019-05-13T06:34:36.757Z,1.20
2019-05-13T06:37:05.442Z,1.13
2019-05-13T06:39:33.796Z,1.80
2019-05-13T06:42:02.980Z,1.00
2019-05-13T06:44:31.615Z,1.50
2019-05-13T06:46:59.049Z,1.10
2019-05-13T06:49:27.407Z,1.27
2019-05-13T06:51:56.023Z,1.00
2019-05-13T06:54:24.364Z,1.30
2019-05-13T06:56:52.776Z,1.80
2019-05-13T06:59:22.382Z,1.20
2019-05-13T07:01:51.384Z,1.20
2019-05-13T07:04:18.230Z,1.50
2019-05-13T07:06:46.724Z,1.20
2019-05-13T07:09:15.032Z,1.37
2019-05-13T07:11:43.335Z,1.10
2019-05-13T07:14:12.692Z,1.83
2019-05-13T07:16:42.167Z,1.47
2019-05-13T07:19:08.605Z,1.10
2019-05-13T07:21:37.203Z,1.30
2019-05-13T07:24:05.542Z,1.17
2019-05-13T07:26:33.873Z,1.40
2019-05-13T07:29:03.538Z,1.30
2019-05-13T07:31:32.388Z,1.17
2019-05-13T07:34:02.073Z,1.50
2019-05-13T07:36:28.075Z,1.27
2019-05-13T07:38:56.475Z,1.30
2019-05-13T07:41:35.288Z,1.57
2019-05-13T07:43:53.826Z,1.20
2019-05-13T07:46:22.175Z,1.20
2019-05-13T07:48:52.120Z,1.10
2019-05-13T07:51:19.053Z,1.00
2019-05-13T07:53:47.389Z,1.40
2019-05-13T07:56:15.723Z,1.10
2019-05-13T07:58:44.539Z,1.20
2019-05-13T08:01:12.857Z,1.30
2019-05-13T08:03:42.131Z,1.23
2019-05-13T08:06:11.173Z,1.13
2019-05-13T08:08:38.362Z,1.80
2019-05-13T08:11:06.763Z,1.20
2019-05-13T08:13:35.276Z,1.13
2019-05-13T08:16:03.771Z,1.10
2019-05-13T08:18:32.232Z,1.33
2019-05-13T08:21:01.980Z,1.50
2019-05-13T08:23:29.064Z,1.40
2019-05-13T08:25:57.400Z,1.33
2019-05-13T08:28:25.898Z,0.90
2019-05-13T08:30:54.259Z,1.00
2019-05-13T08:33:22.805Z,1.37
2019-05-13T08:35:53.991Z,1.07
2019-05-13T08:38:19.538Z,1.33
2019-05-13T08:40:47.895Z,1.40
2019-05-13T08:43:16.368Z,1.30
2019-05-13T08:45:44.746Z,1.60
2019-05-13T08:48:13.162Z,1.20
2019-05-13T08:50:42.110Z,1.13
2019-05-13T08:53:12.180Z,1.33
2019-05-13T08:55:38.883Z,1.00
2019-05-13T08:58:07.286Z,1.40
2019-05-13T09:00:44.716Z,1.10
2019-05-13T09:03:13.459Z,1.30
2019-05-13T09:05:41.801Z,1.40
2019-05-13T09:08:11.537Z,1.20
2019-05-13T09:10:41.218Z,1.10
2019-05-13T09:13:07.436Z,1.40
2019-05-13T09:15:35.785Z,1.03
2019-05-13T09:18:04.231Z,1.10
2019-05-13T09:20:32.590Z,1.30
2019-05-13T09:23:02.098Z,1.47
2019-05-13T09:25:31.968Z,1.23
2019-05-13T09:27:57.966Z,1.33
2019-05-13T09:30:27.397Z,1.33
2019-05-13T09:32:54.878Z,1.30
2019-05-13T09:35:23.239Z,1.73
2019-05-13T09:37:51.682Z,1.23
2019-05-13T09:40:22.359Z,1.30
2019-05-13T09:42:52.081Z,1.23
2019-05-13T09:45:17.062Z,1.10
2019-05-13T09:47:45.546Z,1.47
2019-05-13T09:50:28.463Z,1.30
2019-05-13T09:52:42.997Z,1.20
2019-05-13T09:55:25.322Z,1.10
2019-05-13T09:57:41.552Z,1.20
2019-05-13T10:00:08.281Z,1.70
2019-05-13T10:02:36.987Z,1.20
2019-05-13T10:05:05.564Z,1.30
2019-05-13T10:07:33.871Z,1.47
2019-05-13T10:10:02.332Z,1.20
2019-05-13T10:12:32.010Z,1.20
2019-05-13T10:15:01.737Z,1.30
2019-05-13T10:17:27.532Z,2.07
2019-05-13T10:19:55.919Z,1.67
2019-05-13T10:22:24.232Z,1.10
2019-05-13T10:24:52.702Z,1.20
2019-05-13T10:27:22.362Z,1.37
2019-05-13T10:29:51.782Z,1.37
2019-05-13T10:32:18.311Z,1.30
2019-05-13T10:34:46.878Z,1.50
2019-05-13T10:37:15.319Z,1.17
2019-05-13T10:39:43.796Z,1.30
2019-05-13T10:42:12.438Z,0.90
2019-05-13T10:44:42.222Z,1.20
2019-05-13T10:47:11.862Z,1.53
2019-05-13T10:49:37.681Z,1.27
2019-05-13T10:52:06.108Z,1.10
2019-05-13T10:54:34.557Z,0.87
2019-05-13T10:57:04.061Z,1.00
2019-05-13T10:59:31.339Z,1.20
2019-05-13T11:02:02.169Z,1.20
2019-05-13T11:04:28.523Z,1.10
2019-05-13T11:06:56.858Z,1.10
2019-05-13T11:09:25.284Z,1.10
2019-05-13T11:11:53.687Z,1.00
2019-05-13T11:14:22.493Z,1.03
2019-05-13T11:16:52.311Z,1.27
2019-05-13T11:19:19.046Z,1.00
2019-05-13T11:21:50.681Z,1.17
2019-05-13T11:24:15.872Z,1.10
2019-05-13T11:26:44.244Z,1.40
2019-05-13T11:29:12.699Z,1.37
2019-05-13T11:31:42.862Z,1.20
2019-05-13T11:34:09.620Z,1.10
2019-05-13T11:36:37.960Z,0.90
2019-05-13T11:39:08.339Z,1.10
2019-05-13T11:41:36.662Z,0.90
2019-05-13T11:44:12.580Z,1.00
2019-05-13T11:46:33.760Z,1.10
2019-05-13T11:49:02.670Z,1.10
2019-05-13T11:51:31.989Z,1.17
2019-05-13T11:54:01.746Z,0.90
2019-05-13T11:56:27.686Z,0.90
2019-05-13T11:58:56.018Z,0.80
2019-05-13T12:01:24.499Z,0.90
2019-05-13T12:03:53.405Z,0.80
2019-05-13T12:06:23.220Z,1.10
2019-05-13T12:08:52.126Z,1.07
2019-05-13T12:11:18.622Z,0.93
2019-05-13T12:13:46.965Z,0.93
2019-05-13T12:16:15.740Z,0.97
2019-05-13T12:18:44.113Z,1.83
2019-05-13T12:21:12.521Z,1.00
2019-05-13T12:23:42.787Z,1.17
2019-05-13T12:26:09.367Z,0.87
2019-05-13T12:28:37.700Z,0.83
2019-05-13T12:31:06.323Z,0.80
2019-05-13T12:33:34.656Z,0.80
2019-05-13T12:36:03.435Z,0.90
2019-05-13T12:38:33.437Z,0.90
2019-05-13T12:41:04.612Z,1.00
2019-05-13T12:43:31.438Z,1.03
2019-05-13T12:45:57.273Z,0.90
2019-05-13T12:48:25.618Z,1.00
2019-05-13T12:50:54.381Z,1.07
2019-05-13T12:53:22.649Z,0.87
2019-05-13T12:55:55.778Z,0.90
2019-05-13T12:58:19.346Z,1.33
2019-05-13T13:00:47.884Z,1.00
2019-05-13T13:03:16.236Z,1.00
2019-05-13T13:05:44.919Z,1.40
2019-05-13T13:08:28.874Z,1.00
2019-05-13T13:10:42.485Z,1.33
2019-05-13T13:13:10.330Z,0.97
2019-05-13T13:15:46.630Z,0.90
2019-05-13T13:18:07.203Z,0.80
2019-05-13T13:20:41.636Z,1.33
2019-05-13T13:23:04.648Z,1.57
2019-05-13T13:25:33.881Z,1.20
2019-05-13T13:28:10.819Z,0.77
2019-05-13T13:30:34.573Z,1.17
2019-05-13T13:32:57.902Z,0.93
2019-05-13T13:35:26.281Z,1.10
2019-05-13T13:37:54.998Z,1.10
2019-05-13T13:40:28.490Z,1.00
2019-05-13T13:42:52.980Z,1.10
2019-05-13T13:45:22.764Z,1.13
2019-05-13T13:47:59.316Z,0.97
2019-05-13T13:50:17.265Z,1.10
2019-05-13T13:52:46.063Z,1.10
2019-05-13T13:55:15.912Z,0.97
2019-05-13T13:57:44.964Z,0.97
2019-05-13T14:00:31.880Z,1.00
2019-05-13T14:02:42.388Z,1.00
2019-05-13T14:05:08.448Z,0.90
2019-05-13T14:07:38.793Z,1.00
2019-05-13T14:10:07.188Z,0.97
2019-05-13T14:12:34.495Z,1.13
2019-05-13T14:15:03.121Z,0.87
2019-05-13T14:17:31.559Z,1.07
2019-05-13T14:20:05.195Z,1.10
2019-05-13T14:22:33.598Z,0.90
2019-05-13T14:25:02.092Z,1.20
2019-05-13T14:27:31.510Z,0.90
2019-05-13T14:30:01.341Z,0.83
2019-05-13T14:32:28.006Z,0.80
2019-05-13T14:34:56.900Z,1.63
2019-05-13T14:37:25.258Z,0.93
2019-05-13T14:39:53.665Z,0.90
2019-05-13T14:42:22.885Z,0.90
2019-05-13T14:44:52.119Z,0.90
2019-05-13T14:47:19.012Z,1.13
2019-05-13T14:49:47.806Z,0.83
2019-05-13T14:52:16.193Z,1.10
2019-05-13T14:54:44.528Z,0.90
2019-05-13T14:57:15.010Z,0.90
2019-05-13T14:59:41.775Z,1.00
2019-05-13T15:02:11.981Z,0.90
2019-05-13T15:04:41.915Z,1.00
2019-05-13T15:07:07.760Z,0.90
2019-05-13T15:09:36.287Z,0.90
2019-05-13T15:12:05.387Z,0.90
2019-05-13T15:14:33.811Z,1.00
2019-05-13T15:17:07.060Z,0.90
2019-05-13T15:19:31.728Z,1.10
2019-05-13T15:21:59.895Z,0.90
2019-05-13T15:24:28.401Z,1.07
2019-05-13T15:26:57.179Z,0.70
2019-05-13T15:29:25.630Z,1.00
2019-05-13T15:31:53.991Z,1.00
2019-05-13T15:34:25.562Z,0.77
2019-05-13T15:36:54.125Z,1.03
2019-05-13T15:39:22.525Z,1.03
2019-05-13T15:41:52.384Z,0.80
2019-05-13T15:44:21.924Z,0.93
2019-05-13T15:46:48.164Z,0.90
2019-05-13T15:49:16.924Z,0.90
2019-05-13T15:51:45.304Z,0.80
2019-05-13T15:54:15.643Z,0.73
2019-05-13T15:56:42.271Z,0.90
2019-05-13T15:59:12.536Z,0.87
2019-05-13T16:01:41.339Z,0.90
2019-05-13T16:04:07.565Z,0.90
2019-05-13T16:06:35.936Z,0.83
2019-05-13T16:09:06.094Z,0.80
2019-05-13T16:11:34.647Z,1.13
2019-05-13T16:14:02.979Z,0.93
2019-05-13T16:16:32.385Z,0.83
2019-05-13T16:19:00.188Z,1.00
2019-05-13T16:21:28.711Z,1.07
2019-05-13T16:23:57.090Z,0.80
2019-05-13T16:26:27.422Z,0.90
2019-05-13T16:28:54.258Z,0.97
2019-05-13T16:31:22.614Z,0.97
2019-05-13T16:33:52.232Z,0.80
2019-05-13T16:36:22.133Z,1.10
2019-05-13T16:38:47.889Z,1.00
2019-05-13T16:41:16.526Z,1.10
2019-05-13T16:43:44.932Z,0.80
2019-05-13T16:46:13.348Z,1.20
2019-05-13T16:48:41.857Z,1.20
2019-05-13T16:51:12.333Z,1.30
2019-05-13T16:53:38.686Z,1.00
2019-05-13T16:56:07.422Z,1.00
2019-05-13T16:58:35.795Z,1.00
2019-05-13T17:01:04.385Z,0.83
2019-05-13T17:03:32.955Z,0.87
2019-05-13T17:06:02.057Z,0.93
2019-05-13T17:08:31.839Z,0.80
2019-05-13T17:10:58.443Z,1.03
2019-05-13T17:13:26.795Z,1.10
2019-05-13T17:15:55.120Z,1.10
2019-05-13T17:18:23.890Z,1.07
2019-05-13T17:20:52.281Z,1.07
2019-05-13T17:23:20.676Z,0.90
2019-05-13T17:25:51.801Z,0.90
2019-05-13T17:28:17.641Z,1.10
2019-05-13T17:30:46.031Z,1.00
2019-05-13T17:33:14.646Z,0.90
2019-05-13T17:35:43.080Z,0.83
2019-05-13T17:38:11.582Z,1.27
2019-05-13T17:40:42.024Z,1.07
2019-05-13T17:43:08.790Z,0.70
2019-05-13T17:45:37.271Z,0.90
2019-05-13T17:48:06.264Z,0.87
2019-05-13T17:50:34.607Z,0.80
2019-05-13T17:53:02.972Z,1.30
2019-05-13T17:55:31.442Z,1.13
2019-05-13T17:58:01.415Z,0.90
2019-05-13T18:00:28.266Z,2.03
2019-05-13T18:02:56.773Z,1.20
2019-05-13T18:05:25.190Z,1.40
2019-05-13T18:07:53.615Z,1.97
2019-05-13T18:10:22.697Z,1.20
2019-05-13T18:12:51.117Z,1.70
2019-05-13T18:15:18.943Z,1.50
2019-05-13T18:17:47.406Z,1.50
2019-05-13T18:20:15.840Z,1.20
2019-05-13T18:22:44.197Z,1.20
2019-05-13T18:25:12.872Z,1.30
2019-05-13T18:27:41.702Z,1.23
2019-05-13T18:30:11.435Z,1.67
2019-05-13T18:32:38.292Z,1.30
2019-05-13T18:35:06.743Z,2.00
2019-05-13T18:37:35.137Z,1.57
2019-05-13T18:40:03.755Z,1.40
2019-05-13T18:42:32.136Z,1.90
2019-05-13T18:45:02.182Z,1.63
2019-05-13T18:47:31.170Z,1.50
2019-05-13T18:49:57.863Z,1.00
2019-05-13T18:52:26.166Z,1.60
2019-05-13T18:54:54.794Z,1.30
2019-05-13T18:57:23.140Z,1.53
2019-05-13T18:59:52.049Z,1.60
2019-05-13T19:02:21.395Z,1.57
2019-05-13T19:04:48.639Z,1.60
2019-05-13T19:07:17.091Z,1.50
2019-05-13T19:09:45.608Z,1.70
2019-05-13T19:12:14.024Z,1.50
2019-05-13T19:14:42.441Z,1.67
2019-05-13T19:17:12.315Z,1.33
2019-05-13T19:19:42.025Z,1.23
2019-05-13T19:22:08.045Z,1.30
2019-05-13T19:24:36.573Z,1.30
2019-05-13T19:27:04.955Z,1.40
2019-05-13T19:29:33.415Z,1.50
2019-05-13T19:32:02.141Z,1.57
2019-05-13T19:34:32.271Z,1.57
2019-05-13T19:36:58.920Z,1.70
2019-05-13T19:39:27.355Z,1.37
2019-05-13T19:41:55.700Z,1.47
2019-05-13T19:44:24.193Z,1.70
2019-05-13T19:46:52.681Z,1.33
2019-05-13T19:49:29.729Z,1.40
2019-05-13T19:51:51.971Z,1.73
2019-05-13T19:54:17.912Z,1.53
2019-05-13T19:56:46.248Z,1.40
2019-05-13T19:59:14.634Z,1.50
2019-05-13T20:01:43.033Z,1.43
2019-05-13T20:04:11.362Z,1.40
2019-05-13T20:06:41.476Z,1.80
2019-05-13T20:09:08.325Z,1.80
2019-05-13T20:11:36.717Z,1.50
2019-05-13T20:14:05.054Z,2.10
2019-05-13T20:16:33.564Z,1.87
2019-05-13T20:19:01.901Z,1.83
2019-05-13T20:21:32.006Z,1.67
2019-05-13T20:23:58.857Z,1.17
2019-05-13T20:26:27.159Z,1.60
2019-05-13T20:28:55.524Z,1.50
2019-05-13T20:31:23.946Z,1.60
2019-05-13T20:33:52.299Z,1.83
2019-05-13T20:36:22.254Z,2.13
2019-05-13T20:38:50.982Z,1.80
2019-05-13T20:41:17.524Z,1.57
2019-05-13T20:43:45.858Z,1.60
2019-05-13T20:46:14.319Z,1.70
2019-05-13T20:48:42.635Z,1.97
2019-05-13T20:51:11.365Z,1.90
2019-05-13T20:53:41.202Z,1.73
2019-05-13T20:56:07.872Z,1.70
2019-05-13T20:58:36.205Z,1.97
2019-05-13T21:01:05.020Z,1.57
2019-05-13T21:03:33.378Z,2.10
2019-05-13T21:06:08.839Z,1.80
2019-05-13T21:08:37.276Z,1.57
2019-05-13T21:11:05.611Z,2.07
2019-05-13T21:13:34.478Z,1.77
2019-05-13T21:16:02.829Z,1.97
2019-05-13T21:18:31.565Z,2.10
2019-05-13T21:20:59.639Z,1.70
2019-05-13T21:23:28.006Z,1.60
2019-05-13T21:25:56.320Z,1.90
2019-05-13T21:28:24.763Z,1.80
2019-05-13T21:30:53.113Z,1.60
2019-05-13T21:33:22.124Z,1.70
2019-05-13T21:35:51.159Z,1.40
2019-05-13T21:38:18.304Z,1.63
2019-05-13T21:40:46.659Z,1.90
2019-05-13T21:43:15.442Z,1.47
2019-05-13T21:45:43.757Z,1.70
2019-05-13T21:48:12.067Z,1.47
2019-05-13T21:50:41.444Z,1.43
2019-05-13T21:53:08.955Z,1.60
2019-05-13T21:55:37.289Z,1.90
2019-05-13T21:58:05.872Z,1.80
2019-05-13T22:00:41.570Z,1.90
2019-05-13T22:03:07.983Z,1.83
2019-05-13T22:05:36.327Z,2.10
2019-05-13T22:08:04.639Z,2.00
2019-05-13T22:10:33.142Z,2.07
2019-05-13T22:13:01.603Z,1.87
2019-05-13T22:15:32.165Z,1.67
2019-05-13T22:17:58.489Z,2.00
2019-05-13T22:20:26.807Z,1.57
2019-05-13T22:22:55.156Z,1.70
2019-05-13T22:25:23.897Z,1.80
2019-05-13T22:27:52.205Z,1.70
2019-05-13T22:30:20.627Z,1.60
2019-05-13T22:32:49.157Z,2.23
2019-05-13T22:35:17.495Z,1.70
2019-05-13T22:37:45.920Z,2.00
2019-05-13T22:40:14.440Z,2.30
2019-05-13T22:42:42.775Z,1.73
2019-05-13T22:45:11.679Z,1.97
2019-05-13T22:47:41.728Z,1.93
2019-05-13T22:50:08.331Z,1.80
2019-05-13T22:52:36.713Z,1.70
2019-05-13T22:55:05.948Z,2.20
2019-05-13T22:57:34.307Z,1.90
2019-05-13T23:00:02.726Z,1.83
2019-05-13T23:02:33.532Z,1.83
2019-05-13T23:05:01.687Z,2.10
2019-05-13T23:07:28.205Z,2.20
2019-05-13T23:09:56.643Z,1.70
2019-05-13T23:12:24.984Z,2.00
2019-05-13T23:14:53.414Z,1.70
2019-05-13T23:17:21.903Z,1.93
2019-05-13T23:19:52.254Z,1.73
2019-05-13T23:22:18.579Z,1.77
2019-05-13T23:24:47.030Z,1.87
2019-05-13T23:27:15.479Z,1.60
2019-05-13T23:29:43.799Z,1.70
2019-05-13T23:32:12.254Z,2.30
2019-05-13T23:34:42.314Z,2.13
2019-05-13T23:37:11.214Z,1.73
2019-05-13T23:39:37.438Z,1.87
2019-05-13T23:42:05.772Z,1.90
2019-05-13T23:44:34.097Z,1.60
2019-05-13T23:47:02.837Z,2.10
2019-05-13T23:49:31.667Z,2.20
2019-05-13T23:51:59.579Z,1.90
2019-05-13T23:54:28.421Z,1.70
2019-05-13T23:56:56.767Z,1.93
2019-05-13T23:59:25.107Z,1.77
